createdAt,value
2022-08-30T05:23:17.370Z,96.62
2022-08-30T05:34:02.554Z,97.46
2022-08-30T05:44:25.833Z,98.04
2022-08-30T05:55:07.659Z,98.46
2022-08-30T06:05:41.997Z,99.31
2022-08-30T06:16:32.761Z,99.52
2022-08-30T06:27:02.701Z,98.14
2022-08-30T06:37:46.512Z,96.80
2022-08-30T06:58:11.171Z,96.29
2022-08-30T07:08:56.239Z,94.86
2022-08-30T07:19:21.356Z,93.46
2022-08-30T07:29:52.594Z,92.72
2022-08-30T07:40:15.051Z,90.87
2022-08-30T07:50:39.871Z,87.98
2022-08-30T08:01:03.799Z,86.39
2022-08-30T08:11:34.625Z,84.63
2022-08-30T08:22:20.581Z,84.29
2022-08-30T08:32:52.446Z,83.05
2022-08-30T08:43:19.552Z,80.76
2022-08-30T08:53:46.638Z,79.11
2022-08-30T09:04:32.041Z,78.51
2022-08-30T09:14:55.938Z,77.04
2022-08-30T09:25:32.927Z,77.42
2022-08-30T09:36:16.829Z,78.30
2022-08-30T09:47:03.499Z,78.98
2022-08-30T09:58:10.657Z,79.13
2022-08-30T10:08:56.639Z,79.10
2022-08-30T10:19:21.758Z,78.95
2022-08-30T10:29:59.649Z,76.88
2022-08-30T10:40:34.103Z,76.92
2022-08-30T10:50:57.854Z,76.82
2022-08-30T11:12:39.422Z,75.72
2022-08-30T11:23:23.407Z,75.18
2022-08-30T11:33:52.353Z,74.53
2022-08-30T11:44:42.258Z,74.29
2022-08-30T11:55:06.889Z,73.55
2022-08-30T12:05:58.920Z,72.23
2022-08-30T12:16:22.885Z,70.99
2022-08-30T12:26:41.283Z,70.73
2022-08-30T12:37:25.283Z,69.38
2022-08-30T12:47:59.474Z,67.72
2022-08-30T12:58:32.763Z,65.93
2022-08-30T13:09:42.720Z,65.92
2022-08-30T13:20:49.770Z,66.00
2022-08-30T13:31:29.089Z,67.26
2022-08-30T13:41:44.606Z,67.52
2022-08-30T13:52:09.729Z,67.41
2022-08-30T14:02:22.211Z,67.70
2022-08-30T14:23:02.035Z,68.21
2022-08-30T14:33:27.187Z,68.09
2022-08-30T14:43:33.790Z,68.08
2022-08-30T14:53:40.647Z,68.58
2022-08-30T15:03:51.310Z,68.88
2022-08-30T15:13:57.817Z,69.49
2022-08-30T15:24:11.501Z,69.29
2022-08-30T15:34:29.059Z,69.71
2022-08-30T15:44:42.887Z,70.58
2022-08-30T15:54:52.216Z,71.28
2022-08-30T16:05:15.919Z,71.35
2022-08-30T16:15:31.455Z,71.16
2022-08-30T16:25:47.379Z,71.44
2022-08-30T16:36:10.946Z,73.07
2022-08-30T16:46:53.979Z,75.67
2022-08-30T17:08:36.895Z,76.93
2022-08-30T17:19:50.112Z,76.71
2022-08-30T17:30:46.071Z,76.30
2022-08-30T17:41:45.631Z,76.17
2022-08-30T17:52:53.525Z,76.32
2022-08-30T18:03:46.784Z,76.59
2022-08-30T18:14:47.223Z,77.26
2022-08-30T18:25:14.586Z,78.03
2022-08-30T18:35:37.717Z,78.71
2022-08-30T18:46:12.719Z,79.42
2022-08-30T18:56:29.686Z,80.41
2022-08-30T19:06:46.456Z,80.66
2022-08-30T19:17:12.650Z,81.05
2022-08-30T19:27:37.281Z,81.61
2022-08-30T19:38:03.708Z,82.23
2022-08-30T19:48:57.756Z,82.96
2022-08-30T19:59:19.415Z,83.60
2022-08-30T20:10:05.416Z,83.79
2022-08-30T20:20:22.987Z,83.95
2022-08-30T20:24:23.076Z,76.53
2022-08-30T20:31:09.378Z,84.01
2022-08-30T20:42:11.021Z,83.07
2022-08-30T20:52:52.880Z,84.15
2022-08-30T21:03:48.735Z,85.29
2022-08-30T21:14:55.766Z,86.50
2022-08-30T21:25:42.178Z,87.24
2022-08-30T21:36:07.092Z,88.00
2022-08-30T21:46:17.017Z,88.96
2022-08-30T21:56:24.104Z,89.51
2022-08-30T22:06:36.932Z,89.90
2022-08-30T22:16:41.804Z,90.28
2022-08-30T22:28:09.950Z,90.57
2022-08-30T22:38:52.804Z,90.71
2022-08-30T22:49:01.977Z,90.97
2022-08-30T22:59:08.960Z,91.45
2022-08-30T23:09:29.970Z,92.01
2022-08-30T23:19:33.983Z,92.30
2022-08-30T23:30:00.335Z,92.74
2022-08-30T23:40:43.462Z,93.02
2022-08-30T23:51:29.756Z,93.15
